Time,TemperatureF,DewpointF,PressureIn,WindDirection,WindDirectionDegrees,WindSpeedMPH,WindSpeedGustMPH,Humidity,HourlyPrecipIn,Conditions,Clouds,dailyrainin,SolarRadiationWatts/m^2,SoftwareType,DateUTC
2013-07-14 00:01:00,74.3,68.1,30.21,ESE,110,0.0,0.0,81,0.00,,CLR,0.00,0.00,VWS V14.01,2013-07-14 04:01:00,
2013-07-14 00:02:00,74.3,68.1,30.22,ESE,119,0.0,1.0,81,0.00,,CLR,0.00,0.00,VWS V14.01,2013-07-14 04:02:00,
2013-07-14 00:08:00,74.3,68.1,30.22,ESE,119,0.0,1.0,81,0.00,,CLR,0.00,0.00,VWS V14.01,2013-07-14 04:08:00,
2013-07-14 00:13:00,74.3,68.4,30.22,ESE,123,0.0,1.0,82,0.00,,CLR,0.00,0.00,VWS V14.01,2013-07-14 04:13:00,
2013-07-14 00:18:00,74.1,68.3,30.22,ESE,123,0.0,0.0,82,0.00,,CLR,0.00,0.00,VWS V14.01,2013-07-14 04:18:00,
2013-07-14 00:23:00,74.1,68.3,30.22,ESE,123,0.0,0.0,82,0.00,,CLR,0.00,0.00,VWS V14.01,2013-07-14 04:23:00,
2013-07-14 00:28:00,73.9,68.8,30.22,ESE,123,0.0,0.0,84,0.00,,CLR,0.00,0.00,VWS V14.01,2013-07-14 04:28:00,
2013-07-14 00:33:00,73.7,68.6,30.22,ESE,123,0.0,0.0,84,0.00,,CLR,0.00,0.00,VWS V14.01,2013-07-14 04:33:00,
2013-07-14 00:38:00,73.4,68.6,30.22,ESE,123,0.0,0.0,85,0.00,,CLR,0.00,0.00,VWS V14.01,2013-07-14 04:38:00,
2013-07-14 00:43:00,73.4,69.0,30.22,ESE,123,0.0,0.0,86,0.00,,CLR,0.00,0.00,VWS V14.01,2013-07-14 04:43:00,
2013-07-14 00:48:00,73.2,68.8,30.22,ESE,123,0.0,0.0,86,0.00,,CLR,0.00,0.00,VWS V14.01,2013-07-14 04:48:00,
2013-07-14 00:53:00,73.2,69.1,30.22,ESE,123,0.0,0.0,87,0.00,,CLR,0.00,0.00,VWS V14.01,2013-07-14 04:53:00,
2013-07-14 00:58:00,73.0,68.9,30.22,ESE,123,0.0,0.0,87,0.00,,CLR,0.00,0.00,VWS V14.01,2013-07-14 04:58:00,
2013-07-14 01:04:00,72.7,68.9,30.22,ESE,123,0.0,0.0,88,0.00,,CLR,0.00,0.00,VWS V14.01,2013-07-14 05:04:00,
2013-07-14 01:09:00,72.3,68.6,30.22,SSE,164,0.0,2.0,88,0.00,,CLR,0.00,0.00,VWS V14.01,2013-07-14 05:09:00,
2013-07-14 01:14:00,72.2,68.8,30.22,SSE,164,0.0,0.0,89,0.00,,CLR,0.00,0.00,VWS V14.01,2013-07-14 05:14:00,
2013-07-14 01:19:00,72.2,68.8,30.22,SSE,164,0.0,0.0,89,0.00,,CLR,0.00,0.00,VWS V14.01,2013-07-14 05:19:00,
2013-07-14 01:24:00,72.0,68.6,30.22,SSE,164,0.0,0.0,89,0.00,,CLR,0.00,0.00,VWS V14.01,2013-07-14 05:24:00,
2013-07-14 01:29:00,72.0,68.9,30.22,SSE,164,0.0,0.0,90,0.00,,CLR,0.00,0.00,VWS V14.01,2013-07-14 05:29:00,
2013-07-14 01:34:00,71.8,68.7,30.22,SSE,164,0.0,0.0,90,0.00,,CLR,0.00,0.00,VWS V14.01,2013-07-14 05:34:00,
2013-07-14 01:39:00,71.7,68.6,30.22,South,172,0.0,0.0,90,0.00,,CLR,0.00,0.00,VWS V14.01,2013-07-14 05:39:00,
2013-07-14 01:44:00,71.7,68.9,30.22,South,172,0.0,0.0,91,0.01,,CLR,0.01,0.00,VWS V14.01,2013-07-14 05:44:00,
2013-07-14 01:49:00,71.8,69.3,30.22,South,172,0.0,0.0,92,0.01,,CLR,0.01,0.00,VWS V14.01,2013-07-14 05:49:00,
2013-07-14 01:54:00,71.7,69.3,30.22,South,175,0.0,0.0,92,0.01,,CLR,0.01,0.00,VWS V14.01,2013-07-14 05:54:00,
2013-07-14 01:59:00,71.5,68.7,30.22,South,175,0.0,0.0,91,0.01,,CLR,0.01,0.00,VWS V14.01,2013-07-14 05:59:00,
2013-07-14 02:05:00,71.3,68.9,30.22,South,175,0.0,0.0,92,0.01,,CLR,0.01,0.00,VWS V14.01,2013-07-14 06:05:00,
2013-07-14 02:10:00,71.3,68.9,30.22,SSW,195,0.0,1.0,92,0.01,,CLR,0.01,0.00,VWS V14.01,2013-07-14 06:10:00,
2013-07-14 02:15:00,71.1,68.7,30.22,SSW,195,0.0,0.0,92,0.01,,CLR,0.01,0.00,VWS V14.01,2013-07-14 06:15:00,
2013-07-14 02:20:00,71.0,68.6,30.22,SSW,195,0.0,0.0,92,0.01,,CLR,0.01,0.00,VWS V14.01,2013-07-14 06:20:00,
2013-07-14 02:25:00,71.0,68.6,30.22,SSW,195,0.0,0.0,92,0.01,,CLR,0.01,0.00,VWS V14.01,2013-07-14 06:25:00,
2013-07-14 02:30:00,70.6,68.2,30.22,SSW,195,0.0,0.0,92,0.01,,CLR,0.01,0.00,VWS V14.01,2013-07-14 06:30:00,
2013-07-14 02:35:00,70.5,68.1,30.22,SSW,195,0.0,0.0,92,0.01,,CLR,0.01,0.00,VWS V14.01,2013-07-14 06:35:00,
2013-07-14 02:40:00,70.3,68.2,30.22,SSW,195,0.0,0.0,93,0.01,,CLR,0.01,0.00,VWS V14.01,2013-07-14 06:40:00,
2013-07-14 02:45:00,70.1,68.0,30.22,SSW,195,0.0,0.0,93,0.00,,CLR,0.01,0.00,VWS V14.01,2013-07-14 06:45:00,
2013-07-14 02:50:00,70.3,68.2,30.23,SSW,195,0.0,0.0,93,0.00,,CLR,0.01,0.00,VWS V14.01,2013-07-14 06:50:00,
2013-07-14 02:55:00,70.3,68.5,30.23,SSW,195,0.0,0.0,94,0.00,,CLR,0.01,0.00,VWS V14.01,2013-07-14 06:55:00,
2013-07-14 03:01:00,70.1,68.3,30.23,SSW,195,0.0,0.0,94,0.00,,CLR,0.01,0.00,VWS V14.01,2013-07-14 07:01:00,
2013-07-14 03:06:00,69.8,67.7,30.23,SSW,195,0.0,0.0,93,0.00,,CLR,0.01,0.00,VWS V14.01,2013-07-14 07:06:00,
2013-07-14 03:11:00,69.6,67.8,30.23,SSW,195,0.0,0.0,94,0.00,,CLR,0.01,0.00,VWS V14.01,2013-07-14 07:11:00,
2013-07-14 03:16:00,69.8,68.0,30.23,SSW,195,0.0,0.0,94,0.00,,CLR,0.01,0.00,VWS V14.01,2013-07-14 07:16:00,
2013-07-14 03:21:00,69.4,67.6,30.23,SSW,195,0.0,0.0,94,0.00,,CLR,0.01,0.00,VWS V14.01,2013-07-14 07:21:00,
2013-07-14 03:26:00,69.3,67.5,30.23,SSW,195,0.0,0.0,94,0.00,,CLR,0.01,0.00,VWS V14.01,2013-07-14 07:26:00,
2013-07-14 03:31:00,69.3,67.5,30.23,SSW,195,0.0,0.0,94,0.00,,CLR,0.01,0.00,VWS V14.01,2013-07-14 07:31:00,
2013-07-14 03:36:00,69.3,67.8,30.23,SSW,195,0.0,0.0,95,0.00,,CLR,0.01,0.00,VWS V14.01,2013-07-14 07:36:00,
2013-07-14 03:41:00,69.1,67.6,30.23,SSW,195,0.0,0.0,95,0.00,,CLR,0.01,0.00,VWS V14.01,2013-07-14 07:41:00,
2013-07-14 03:46:00,68.9,67.4,30.23,SSW,195,0.0,0.0,95,0.00,,CLR,0.01,0.00,VWS V14.01,2013-07-14 07:46:00,
2013-07-14 03:52:00,68.9,67.4,30.23,SSW,195,0.0,0.0,95,0.00,,CLR,0.01,0.00,VWS V14.01,2013-07-14 07:52:00,
2013-07-14 03:57:00,68.6,67.1,30.23,SSW,195,0.0,0.0,95,0.00,,CLR,0.01,0.00,VWS V14.01,2013-07-14 07:57:00,
2013-07-14 04:02:00,68.6,67.1,30.23,SSW,195,0.0,0.0,95,0.00,,CLR,0.01,0.00,VWS V14.01,2013-07-14 08:02:00,
2013-07-14 04:07:00,68.6,67.4,30.23,SSW,195,0.0,0.0,96,0.00,,CLR,0.01,0.00,VWS V14.01,2013-07-14 08:07:00,
2013-07-14 04:12:00,68.4,67.2,30.23,SSW,195,0.0,0.0,96,0.00,,CLR,0.01,0.00,VWS V14.01,2013-07-14 08:12:00,
2013-07-14 04:17:00,68.4,67.2,30.23,SSW,195,0.0,0.0,96,0.00,,CLR,0.01,0.00,VWS V14.01,2013-07-14 08:17:00,
2013-07-14 04:22:00,68.3,67.1,30.23,SSW,195,0.0,0.0,96,0.00,,CLR,0.01,0.00,VWS V14.01,2013-07-14 08:22:00,
2013-07-14 04:27:00,68.1,66.9,30.23,SSW,195,0.0,0.0,96,0.00,,CLR,0.01,0.00,VWS V14.01,2013-07-14 08:27:00,
2013-07-14 04:32:00,67.9,66.7,30.23,SSW,195,0.0,0.0,96,0.00,,CLR,0.01,0.00,VWS V14.01,2013-07-14 08:32:00,
2013-07-14 04:37:00,67.8,66.6,30.23,SSW,195,0.0,0.0,96,0.00,,CLR,0.01,0.00,VWS V14.01,2013-07-14 08:37:00,
2013-07-14 04:42:00,67.8,66.6,30.23,SSW,195,1.0,1.0,96,0.00,,CLR,0.01,0.00,VWS V14.01,2013-07-14 08:42:00,
2013-07-14 04:47:00,67.8,66.6,30.24,SSW,195,0.0,1.0,96,0.00,,CLR,0.01,0.00,VWS V14.01,2013-07-14 08:47:00,
2013-07-14 04:53:00,67.6,66.4,30.24,SE,136,0.0,2.0,96,0.00,,CLR,0.01,0.00,VWS V14.01,2013-07-14 08:53:00,
2013-07-14 04:58:00,67.6,66.4,30.24,SE,136,0.0,0.0,96,0.00,,CLR,0.01,0.00,VWS V14.01,2013-07-14 08:58:00,
2013-07-14 05:03:00,67.4,66.2,30.24,SE,136,0.0,0.0,96,0.00,,CLR,0.01,0.00,VWS V14.01,2013-07-14 09:03:00,
2013-07-14 05:08:00,67.3,66.1,30.24,SE,136,0.0,0.0,96,0.00,,CLR,0.01,0.00,VWS V14.01,2013-07-14 09:08:00,
2013-07-14 05:13:00,67.3,66.1,30.24,SE,136,0.0,0.0,96,0.00,,CLR,0.01,0.00,VWS V14.01,2013-07-14 09:13:00,
2013-07-14 05:18:00,67.3,66.1,30.24,SE,127,1.0,1.0,96,0.00,,CLR,0.01,0.00,VWS V14.01,2013-07-14 09:18:00,
2013-07-14 05:23:00,67.4,66.5,30.24,SSW,212,0.0,0.0,97,0.00,,CLR,0.01,0.00,VWS V14.01,2013-07-14 09:23:00,
2013-07-14 05:28:00,67.3,66.4,30.24,SSW,210,0.0,0.0,97,0.00,,CLR,0.01,0.00,VWS V14.01,2013-07-14 09:28:00,
2013-07-14 05:33:00,67.1,65.9,30.24,SSW,212,0.0,2.0,96,0.00,,CLR,0.01,0.00,VWS V14.01,2013-07-14 09:33:00,
2013-07-14 05:38:00,66.9,65.7,30.24,SSW,212,0.0,2.0,96,0.00,,CLR,0.01,0.00,VWS V14.01,2013-07-14 09:38:00,
2013-07-14 05:44:00,66.8,65.6,30.24,SSW,210,0.0,0.0,96,0.00,,CLR,0.01,0.00,VWS V14.01,2013-07-14 09:44:00,
2013-07-14 05:49:00,66.8,65.9,30.25,East,97,0.0,0.0,97,0.00,,CLR,0.01,0.00,VWS V14.01,2013-07-14 09:49:00,
2013-07-14 05:54:00,66.8,65.9,30.25,East,97,0.0,0.0,97,0.00,,CLR,0.01,0.00,VWS V14.01,2013-07-14 09:54:00,
2013-07-14 05:59:00,66.8,65.9,30.25,East,97,0.0,0.0,97,0.00,,CLR,0.01,0.00,VWS V14.01,2013-07-14 09:59:00,
2013-07-14 06:04:00,66.8,65.9,30.26,East,97,0.0,0.0,97,0.00,,CLR,0.01,5.00,VWS V14.01,2013-07-14 10:04:00,
2013-07-14 06:09:00,66.8,65.9,30.26,East,97,0.0,0.0,97,0.00,,CLR,0.01,5.00,VWS V14.01,2013-07-14 10:09:00,
2013-07-14 06:14:00,66.8,65.9,30.26,East,97,0.0,0.0,97,0.00,,CLR,0.01,7.00,VWS V14.01,2013-07-14 10:14:00,
2013-07-14 06:19:00,66.8,65.9,30.26,East,97,0.0,0.0,97,0.00,,CLR,0.01,9.00,VWS V14.01,2013-07-14 10:19:00,
2013-07-14 06:24:00,66.8,65.9,30.26,East,97,0.0,0.0,97,0.00,,CLR,0.01,14.00,VWS V14.01,2013-07-14 10:24:00,
2013-07-14 06:29:00,66.6,65.7,30.26,SSE,160,0.0,2.0,97,0.00,,CLR,0.01,19.00,VWS V14.01,2013-07-14 10:29:00,
2013-07-14 06:34:00,66.8,65.9,30.26,SSE,160,0.0,0.0,97,0.00,,CLR,0.01,19.00,VWS V14.01,2013-07-14 10:34:00,
2013-07-14 06:39:00,66.8,65.9,30.26,SSE,160,0.0,0.0,97,0.00,,CLR,0.01,25.00,VWS V14.01,2013-07-14 10:39:00,
2013-07-14 06:45:00,66.8,65.9,30.26,SSE,160,0.0,0.0,97,0.00,,CLR,0.01,25.00,VWS V14.01,2013-07-14 10:45:00,
2013-07-14 06:50:00,66.9,66.0,30.26,SSE,160,0.0,0.0,97,0.00,,CLR,0.01,30.00,VWS V14.01,2013-07-14 10:50:00,
2013-07-14 06:55:00,67.1,66.5,30.26,SSE,160,0.0,0.0,98,0.00,,CLR,0.01,28.00,VWS V14.01,2013-07-14 10:55:00,
2013-07-14 07:00:00,67.3,66.7,30.26,SSE,154,0.0,0.0,98,0.00,,CLR,0.01,30.00,VWS V14.01,2013-07-14 11:00:00,
2013-07-14 07:05:00,67.3,66.7,30.27,SSE,154,0.0,0.0,98,0.00,,CLR,0.01,44.00,VWS V14.01,2013-07-14 11:05:00,
2013-07-14 07:10:00,67.6,67.0,30.27,SSE,154,0.0,0.0,98,0.00,,CLR,0.01,35.00,VWS V14.01,2013-07-14 11:10:00,
2013-07-14 07:15:00,67.8,67.2,30.27,SSE,154,0.0,0.0,98,0.00,,CLR,0.01,51.00,VWS V14.01,2013-07-14 11:15:00,
2013-07-14 07:20:00,67.9,67.3,30.27,SSE,154,0.0,0.0,98,0.00,,CLR,0.01,37.00,VWS V14.01,2013-07-14 11:20:00,
2013-07-14 07:25:00,67.9,67.3,30.27,SSE,154,0.0,0.0,98,0.00,,CLR,0.01,37.00,VWS V14.01,2013-07-14 11:25:00,
2013-07-14 07:30:00,68.1,67.5,30.27,SSE,154,0.0,0.0,98,0.00,,CLR,0.01,39.00,VWS V14.01,2013-07-14 11:30:00,
2013-07-14 07:36:00,68.4,67.8,30.27,SSE,154,0.0,0.0,98,0.00,,CLR,0.01,35.00,VWS V14.01,2013-07-14 11:36:00,
2013-07-14 07:41:00,68.6,68.0,30.27,SSE,154,0.0,0.0,98,0.00,,CLR,0.01,39.00,VWS V14.01,2013-07-14 11:41:00,
2013-07-14 07:46:00,68.9,68.3,30.27,SSE,154,0.0,0.0,98,0.00,,CLR,0.01,40.00,VWS V14.01,2013-07-14 11:46:00,
2013-07-14 07:51:00,69.3,68.7,30.27,SSE,154,0.0,0.0,98,0.00,,CLR,0.01,40.00,VWS V14.01,2013-07-14 11:51:00,
2013-07-14 07:56:00,69.3,68.7,30.27,WNW,294,0.0,0.0,98,0.00,,CLR,0.01,42.00,VWS V14.01,2013-07-14 11:56:00,
2013-07-14 08:01:00,69.3,68.4,30.27,WNW,294,0.0,0.0,97,0.00,,CLR,0.01,44.00,VWS V14.01,2013-07-14 12:01:00,
2013-07-14 08:06:00,69.4,68.5,30.28,WNW,296,0.0,2.0,97,0.00,,CLR,0.01,46.00,VWS V14.01,2013-07-14 12:06:00,
2013-07-14 08:11:00,69.8,69.2,30.28,WNW,292,0.0,2.0,98,0.00,,CLR,0.01,49.00,VWS V14.01,2013-07-14 12:11:00,
2013-07-14 08:16:00,70.1,69.5,30.28,WNW,292,0.0,0.0,98,0.00,,CLR,0.01,49.00,VWS V14.01,2013-07-14 12:16:00,
2013-07-14 08:21:00,70.5,69.6,30.28,WNW,292,0.0,0.0,97,0.00,,CLR,0.01,44.00,VWS V14.01,2013-07-14 12:21:00,
2013-07-14 08:26:00,71.3,70.7,30.28,WNW,292,0.0,0.0,98,0.00,,CLR,0.01,46.00,VWS V14.01,2013-07-14 12:26:00,
2013-07-14 08:32:00,71.8,70.9,30.28,WNW,292,0.0,0.0,97,0.00,,CLR,0.01,44.00,VWS V14.01,2013-07-14 12:32:00,
2013-07-14 08:37:00,72.7,71.8,30.28,WNW,292,0.0,0.0,97,0.00,,CLR,0.01,46.00,VWS V14.01,2013-07-14 12:37:00,
2013-07-14 08:42:00,73.2,71.4,30.28,WNW,289,0.0,0.0,94,0.00,,CLR,0.01,46.00,VWS V14.01,2013-07-14 12:42:00,
2013-07-14 08:47:00,73.7,70.9,30.28,WNW,289,0.0,0.0,91,0.00,,CLR,0.01,48.00,VWS V14.01,2013-07-14 12:47:00,
2013-07-14 08:52:00,73.9,70.1,30.28,WNW,289,0.0,0.0,88,0.00,,CLR,0.01,48.00,VWS V14.01,2013-07-14 12:52:00,
2013-07-14 08:57:00,74.1,69.3,30.28,WNW,289,0.0,0.0,85,0.00,,CLR,0.01,48.00,VWS V14.01,2013-07-14 12:57:00,
2013-07-14 09:02:00,74.6,69.8,30.28,WSW,237,2.0,2.0,85,0.00,,CLR,0.01,48.00,VWS V14.01,2013-07-14 13:02:00,
2013-07-14 09:07:00,74.8,67.9,30.28,SSW,209,1.0,6.0,79,0.00,,CLR,0.01,49.00,VWS V14.01,2013-07-14 13:07:00,
2013-07-14 09:12:00,75.0,67.7,30.28,WSW,239,3.0,6.0,78,0.00,,CLR,0.01,49.00,VWS V14.01,2013-07-14 13:12:00,
2013-07-14 09:17:00,75.3,67.2,30.29,SW,223,1.0,5.0,76,0.00,,CLR,0.01,51.00,VWS V14.01,2013-07-14 13:17:00,
2013-07-14 09:22:00,75.8,67.7,30.29,SW,223,0.0,5.0,76,0.00,,CLR,0.01,53.00,VWS V14.01,2013-07-14 13:22:00,
2013-07-14 09:27:00,76.2,66.5,30.29,NW,306,0.0,6.0,72,0.00,,CLR,0.01,70.00,VWS V14.01,2013-07-14 13:27:00,
2013-07-14 09:33:00,76.6,67.3,30.29,WSW,237,6.0,6.0,73,0.00,,CLR,0.01,79.00,VWS V14.01,2013-07-14 13:33:00,
2013-07-14 09:38:00,76.7,67.8,30.29,West,281,2.0,6.0,74,0.00,,CLR,0.01,111.00,VWS V14.01,2013-07-14 13:38:00,
2013-07-14 09:43:00,76.9,67.2,30.29,West,270,1.0,6.0,72,0.00,,CLR,0.01,109.00,VWS V14.01,2013-07-14 13:43:00,
2013-07-14 09:48:00,77.3,67.2,30.28,West,265,0.0,8.0,71,0.00,,CLR,0.01,190.00,VWS V14.01,2013-07-14 13:48:00,
2013-07-14 09:53:00,77.5,66.5,30.28,WSW,257,7.0,8.0,69,0.00,,CLR,0.01,148.00,VWS V14.01,2013-07-14 13:53:00,
2013-07-14 09:58:00,77.6,66.6,30.28,SW,217,2.0,8.0,69,0.00,,CLR,0.01,148.00,VWS V14.01,2013-07-14 13:58:00,
2013-07-14 10:03:00,77.8,66.4,30.28,SW,220,4.0,7.0,68,0.00,,CLR,0.01,148.00,VWS V14.01,2013-07-14 14:03:00,
2013-07-14 10:08:00,78.0,66.2,30.28,SSW,196,0.0,7.0,67,0.00,,CLR,0.01,148.00,VWS V14.01,2013-07-14 14:08:00,
2013-07-14 10:13:00,78.2,66.8,30.28,SW,217,0.0,7.0,68,0.00,,CLR,0.01,151.00,VWS V14.01,2013-07-14 14:13:00,
2013-07-14 10:18:00,78.6,66.7,30.28,SSW,192,1.0,8.0,67,0.00,,CLR,0.01,151.00,VWS V14.01,2013-07-14 14:18:00,
2013-07-14 10:24:00,78.6,65.9,30.28,SW,216,2.0,3.0,65,0.00,,CLR,0.01,151.00,VWS V14.01,2013-07-14 14:24:00,
2013-07-14 10:29:00,79.1,66.8,30.28,SW,216,3.0,8.0,66,0.00,,CLR,0.01,547.00,VWS V14.01,2013-07-14 14:29:00,
2013-07-14 10:34:00,79.3,67.0,30.28,SW,217,5.0,7.0,66,0.00,,CLR,0.01,262.00,VWS V14.01,2013-07-14 14:34:00,
2013-07-14 10:39:00,79.7,66.9,30.28,WSW,246,4.0,8.0,65,0.00,,CLR,0.01,857.00,VWS V14.01,2013-07-14 14:39:00,
2013-07-14 10:44:00,79.9,67.5,30.28,SSE,168,2.0,6.0,66,0.00,,CLR,0.01,809.00,VWS V14.01,2013-07-14 14:44:00,
2013-07-14 10:49:00,80.4,67.1,30.29,NW,316,2.0,7.0,64,0.00,,CLR,0.01,165.00,VWS V14.01,2013-07-14 14:49:00,
2013-07-14 10:54:00,80.6,66.4,30.29,WSW,254,4.0,4.0,62,0.00,,CLR,0.01,822.00,VWS V14.01,2013-07-14 14:54:00,
2013-07-14 10:59:00,81.2,66.9,30.29,WNW,282,2.0,7.0,62,0.00,,CLR,0.01,864.00,VWS V14.01,2013-07-14 14:59:00,
2013-07-14 11:04:00,81.4,66.7,30.28,WSW,256,6.0,7.0,61,0.00,,CLR,0.01,836.00,VWS V14.01,2013-07-14 15:04:00,
2013-07-14 11:09:00,81.6,65.9,30.28,West,268,4.0,11.0,59,0.00,,CLR,0.01,859.00,VWS V14.01,2013-07-14 15:09:00,
2013-07-14 11:14:00,81.8,67.5,30.28,WSW,243,2.0,3.0,62,0.00,,CLR,0.01,836.00,VWS V14.01,2013-07-14 15:14:00,
2013-07-14 11:20:00,82.2,66.0,30.28,WSW,246,2.0,6.0,58,0.00,,CLR,0.01,852.00,VWS V14.01,2013-07-14 15:20:00,
2013-07-14 11:25:00,82.6,66.3,30.28,West,275,1.0,5.0,58,0.00,,CLR,0.01,873.00,VWS V14.01,2013-07-14 15:25:00,
2013-07-14 11:30:00,82.6,66.3,30.28,WSW,248,6.0,11.0,58,0.00,,CLR,0.01,889.00,VWS V14.01,2013-07-14 15:30:00,
2013-07-14 11:35:00,82.8,67.0,30.29,SW,233,6.0,7.0,59,0.00,,CLR,0.01,936.00,VWS V14.01,2013-07-14 15:35:00,
2013-07-14 11:40:00,83.0,68.2,30.29,WNW,296,1.0,7.0,61,0.00,,CLR,0.01,924.00,VWS V14.01,2013-07-14 15:40:00,
2013-07-14 11:45:00,83.1,66.8,30.29,West,260,7.0,7.0,58,0.00,,CLR,0.01,977.00,VWS V14.01,2013-07-14 15:45:00,
2013-07-14 11:50:00,83.5,66.7,30.29,WSW,243,3.0,7.0,57,0.00,,CLR,0.01,1003.00,VWS V14.01,2013-07-14 15:50:00,
2013-07-14 11:55:00,83.7,65.8,30.29,WNW,289,4.0,7.0,55,0.00,,CLR,0.01,1038.00,VWS V14.01,2013-07-14 15:55:00,
2013-07-14 12:00:00,83.9,66.5,30.29,SW,223,3.0,16.0,56,0.00,,CLR,0.01,1013.00,VWS V14.01,2013-07-14 16:00:00,
2013-07-14 12:05:00,83.7,67.4,30.28,SW,217,3.0,7.0,58,0.00,,CLR,0.01,1013.00,VWS V14.01,2013-07-14 16:05:00,
2013-07-14 12:10:00,83.3,66.0,30.28,WSW,250,2.0,7.0,56,0.00,,CLR,0.01,1167.00,VWS V14.01,2013-07-14 16:10:00,
2013-07-14 12:15:00,83.5,66.7,30.28,WSW,241,1.0,6.0,57,0.00,,CLR,0.01,1167.00,VWS V14.01,2013-07-14 16:15:00,
2013-07-14 12:20:00,83.9,65.5,30.28,West,277,5.0,8.0,54,0.00,,CLR,0.01,1050.00,VWS V14.01,2013-07-14 16:20:00,
2013-07-14 12:26:00,84.1,66.2,30.28,SSW,200,1.0,8.0,55,0.00,,CLR,0.01,706.00,VWS V14.01,2013-07-14 16:26:00,
2013-07-14 12:31:00,84.3,66.4,30.28,West,270,0.0,10.0,55,0.00,,CLR,0.01,996.00,VWS V14.01,2013-07-14 16:31:00,
2013-07-14 12:36:00,84.5,66.1,30.28,WSW,240,4.0,10.0,54,0.00,,CLR,0.01,996.00,VWS V14.01,2013-07-14 16:36:00,
2013-07-14 12:41:00,84.3,64.8,30.28,WSW,251,5.0,11.0,52,0.00,,CLR,0.01,982.00,VWS V14.01,2013-07-14 16:41:00,
2013-07-14 12:46:00,84.5,65.5,30.28,SSW,206,5.0,8.0,53,0.00,,CLR,0.01,982.00,VWS V14.01,2013-07-14 16:46:00,
2013-07-14 12:51:00,84.3,65.9,30.27,WSW,243,3.0,12.0,54,0.00,,CLR,0.01,982.00,VWS V14.01,2013-07-14 16:51:00,
2013-07-14 12:56:00,84.5,66.6,30.27,SSW,193,5.0,13.0,55,0.00,,CLR,0.01,961.00,VWS V14.01,2013-07-14 16:56:00,
2013-07-14 13:01:00,84.9,66.9,30.27,SSW,196,1.0,13.0,55,0.00,,CLR,0.01,964.00,VWS V14.01,2013-07-14 17:01:00,
2013-07-14 13:06:00,85.1,66.1,30.26,SSW,212,1.0,6.0,53,0.00,,CLR,0.01,962.00,VWS V14.01,2013-07-14 17:06:00,
2013-07-14 13:11:00,85.3,66.2,30.26,WSW,250,0.0,7.0,53,0.00,,CLR,0.01,970.00,VWS V14.01,2013-07-14 17:11:00,
2013-07-14 13:16:00,85.5,66.4,30.26,WSW,258,5.0,11.0,53,0.00,,CLR,0.01,955.00,VWS V14.01,2013-07-14 17:16:00,
2013-07-14 13:22:00,85.3,66.2,30.26,WNW,292,2.0,12.0,53,0.00,,CLR,0.01,945.00,VWS V14.01,2013-07-14 17:22:00,
2013-07-14 13:27:00,85.1,65.5,30.26,West,265,3.0,8.0,52,0.00,,CLR,0.01,968.00,VWS V14.01,2013-07-14 17:27:00,
2013-07-14 13:32:00,85.1,64.4,30.26,NNW,335,2.0,12.0,50,0.00,,CLR,0.01,973.00,VWS V14.01,2013-07-14 17:32:00,
2013-07-14 13:37:00,85.3,66.8,30.26,WSW,250,4.0,10.0,54,0.00,,CLR,0.01,978.00,VWS V14.01,2013-07-14 17:37:00,
2013-07-14 13:42:00,85.7,66.6,30.26,SW,234,6.0,12.0,53,0.00,,CLR,0.01,989.00,VWS V14.01,2013-07-14 17:42:00,
2013-07-14 13:47:00,85.7,66.1,30.26,WNW,298,8.0,8.0,52,0.00,,CLR,0.01,984.00,VWS V14.01,2013-07-14 17:47:00,
2013-07-14 13:52:00,86.0,68.0,30.26,West,280,7.0,8.0,55,0.00,,CLR,0.01,999.00,VWS V14.01,2013-07-14 17:52:00,
2013-07-14 13:57:00,86.0,65.2,30.26,WNW,289,6.0,10.0,50,0.00,,CLR,0.01,978.00,VWS V14.01,2013-07-14 17:57:00,
2013-07-14 14:02:00,86.0,67.4,30.26,WSW,256,0.0,10.0,54,0.00,,CLR,0.01,998.00,VWS V14.01,2013-07-14 18:02:00,
2013-07-14 14:07:00,86.4,65.6,30.26,SW,220,2.0,11.0,50,0.00,,CLR,0.01,985.00,VWS V14.01,2013-07-14 18:07:00,
2013-07-14 14:13:00,86.6,67.4,30.26,SW,224,1.0,11.0,53,0.00,,CLR,0.01,970.00,VWS V14.01,2013-07-14 18:13:00,
2013-07-14 14:18:00,86.8,67.6,30.25,NW,316,6.0,8.0,53,0.00,,CLR,0.01,957.00,VWS V14.01,2013-07-14 18:18:00,
2013-07-14 14:23:00,86.8,65.4,30.25,West,280,11.0,11.0,49,0.00,,CLR,0.01,991.00,VWS V14.01,2013-07-14 18:23:00,
2013-07-14 14:28:00,86.6,66.3,30.25,West,265,6.0,11.0,51,0.00,,CLR,0.01,1001.00,VWS V14.01,2013-07-14 18:28:00,
2013-07-14 14:33:00,86.4,66.2,30.26,WSW,250,2.0,4.0,51,0.00,,CLR,0.01,954.00,VWS V14.01,2013-07-14 18:33:00,
2013-07-14 14:38:00,87.0,68.9,30.26,West,261,3.0,8.0,55,0.00,,CLR,0.01,970.00,VWS V14.01,2013-07-14 18:38:00,
2013-07-14 14:44:00,86.8,64.8,30.26,WSW,240,5.0,7.0,48,0.00,,CLR,0.01,975.00,VWS V14.01,2013-07-14 18:44:00,
2013-07-14 14:49:00,87.0,66.1,30.25,WNW,285,2.0,7.0,50,0.00,,CLR,0.01,961.00,VWS V14.01,2013-07-14 18:49:00,
2013-07-14 14:54:00,87.0,66.1,30.25,SSW,200,0.0,5.0,50,0.00,,CLR,0.01,906.00,VWS V14.01,2013-07-14 18:54:00,
2013-07-14 14:59:00,87.2,68.0,30.25,WNW,296,0.0,6.0,53,0.00,,CLR,0.01,897.00,VWS V14.01,2013-07-14 18:59:00,
2013-07-14 15:04:00,87.4,68.2,30.25,West,263,0.0,5.0,53,0.00,,CLR,0.01,897.00,VWS V14.01,2013-07-14 19:04:00,
2013-07-14 15:09:00,87.6,65.5,30.25,WNW,295,5.0,7.0,48,0.00,,CLR,0.01,910.00,VWS V14.01,2013-07-14 19:09:00,
2013-07-14 15:14:00,87.6,67.8,30.25,WSW,250,0.0,3.0,52,0.00,,CLR,0.01,910.00,VWS V14.01,2013-07-14 19:14:00,
2013-07-14 15:15:00,87.8,68.0,30.25,SW,236,0.0,3.0,52,0.00,,CLR,0.01,910.00,VWS V14.01,2013-07-14 19:15:00,
2013-07-14 15:20:00,88.0,67.1,30.25,WNW,296,0.0,6.0,50,0.00,,CLR,0.01,910.00,VWS V14.01,2013-07-14 19:20:00,
2013-07-14 15:25:00,88.3,65.5,30.25,WSW,251,1.0,6.0,47,0.00,,CLR,0.01,869.00,VWS V14.01,2013-07-14 19:25:00,
2013-07-14 15:30:00,88.3,65.5,30.25,WSW,240,2.0,6.0,47,0.00,,CLR,0.01,811.00,VWS V14.01,2013-07-14 19:30:00,
2013-07-14 15:35:00,88.3,66.1,30.24,WSW,258,1.0,5.0,48,0.00,,CLR,0.01,853.00,VWS V14.01,2013-07-14 19:35:00,
2013-07-14 15:41:00,88.0,67.1,30.24,SSW,195,2.0,11.0,50,0.00,,CLR,0.01,815.00,VWS V14.01,2013-07-14 19:41:00,
2013-07-14 15:46:00,88.3,67.3,30.24,WSW,239,2.0,5.0,50,0.00,,CLR,0.01,823.00,VWS V14.01,2013-07-14 19:46:00,
2013-07-14 15:51:00,88.0,65.9,30.24,SW,229,1.0,5.0,48,0.00,,CLR,0.01,167.00,VWS V14.01,2013-07-14 19:51:00,
2013-07-14 15:56:00,87.8,66.3,30.24,SW,224,2.0,8.0,49,0.00,,CLR,0.01,897.00,VWS V14.01,2013-07-14 19:56:00,
2013-07-14 16:01:00,87.4,67.6,30.24,SW,227,0.0,8.0,52,0.00,,CLR,0.01,778.00,VWS V14.01,2013-07-14 20:01:00,
2013-07-14 16:06:00,87.6,67.2,30.23,WSW,246,1.0,7.0,51,0.00,,CLR,0.01,790.00,VWS V14.01,2013-07-14 20:06:00,
2013-07-14 16:11:00,87.8,68.0,30.23,WSW,254,6.0,8.0,52,0.00,,CLR,0.01,779.00,VWS V14.01,2013-07-14 20:11:00,
2013-07-14 16:16:00,87.6,65.5,30.23,WSW,247,2.0,12.0,48,0.00,,CLR,0.01,748.00,VWS V14.01,2013-07-14 20:16:00,
2013-07-14 16:21:00,87.6,65.5,30.23,WSW,254,0.0,12.0,48,0.00,,CLR,0.01,734.00,VWS V14.01,2013-07-14 20:21:00,
2013-07-14 16:26:00,87.6,65.5,30.23,West,281,0.0,11.0,48,0.00,,CLR,0.01,735.00,VWS V14.01,2013-07-14 20:26:00,
2013-07-14 16:31:00,87.2,65.1,30.23,SW,236,3.0,11.0,48,0.00,,CLR,0.01,670.00,VWS V14.01,2013-07-14 20:31:00,
2013-07-14 16:36:00,86.6,65.2,30.23,WSW,247,0.0,7.0,49,0.00,,CLR,0.01,143.00,VWS V14.01,2013-07-14 20:36:00,
2013-07-14 16:42:00,86.8,67.6,30.23,WSW,237,1.0,7.0,53,0.00,,CLR,0.01,704.00,VWS V14.01,2013-07-14 20:42:00,
2013-07-14 16:47:00,87.2,66.3,30.23,SW,229,0.0,8.0,50,0.00,,CLR,0.01,697.00,VWS V14.01,2013-07-14 20:47:00,
2013-07-14 16:52:00,87.8,65.7,30.23,WSW,256,2.0,8.0,48,0.00,,CLR,0.01,676.00,VWS V14.01,2013-07-14 20:52:00,
2013-07-14 16:57:00,88.0,67.6,30.23,SSW,202,0.0,10.0,51,0.00,,CLR,0.01,662.00,VWS V14.01,2013-07-14 20:57:00,
2013-07-14 17:02:00,88.0,65.9,30.23,SSE,152,1.0,10.0,48,0.00,,CLR,0.01,646.00,VWS V14.01,2013-07-14 21:02:00,
2013-07-14 17:07:00,88.5,68.1,30.23,SSW,205,2.0,5.0,51,0.00,,CLR,0.01,626.00,VWS V14.01,2013-07-14 21:07:00,
2013-07-14 17:12:00,88.3,67.3,30.23,SW,217,0.0,12.0,50,0.00,,CLR,0.01,612.00,VWS V14.01,2013-07-14 21:12:00,
2013-07-14 17:17:00,88.3,65.5,30.23,SSW,213,2.0,6.0,47,0.00,,CLR,0.01,596.00,VWS V14.01,2013-07-14 21:17:00,
2013-07-14 17:18:00,88.3,66.7,30.23,SW,234,2.0,6.0,49,0.00,,CLR,0.01,591.00,VWS V14.01,2013-07-14 21:18:00,
2013-07-14 17:24:00,88.3,66.7,30.23,WSW,254,1.0,1.0,49,0.00,,CLR,0.01,582.00,VWS V14.01,2013-07-14 21:24:00,
2013-07-14 17:29:00,88.3,66.1,30.23,West,260,0.0,7.0,48,0.00,,CLR,0.01,563.00,VWS V14.01,2013-07-14 21:29:00,
2013-07-14 17:34:00,88.3,66.7,30.23,SW,229,0.0,3.0,49,0.00,,CLR,0.01,552.00,VWS V14.01,2013-07-14 21:34:00,
2013-07-14 17:39:00,88.3,67.3,30.23,WSW,257,7.0,7.0,50,0.00,,CLR,0.01,537.00,VWS V14.01,2013-07-14 21:39:00,
2013-07-14 17:44:00,87.8,65.1,30.23,SSW,209,0.0,6.0,47,0.00,,CLR,0.01,521.00,VWS V14.01,2013-07-14 21:44:00,
2013-07-14 17:49:00,88.0,65.3,30.23,SW,226,0.0,6.0,47,0.00,,CLR,0.01,496.00,VWS V14.01,2013-07-14 21:49:00,
2013-07-14 17:54:00,87.8,65.7,30.23,SSW,199,4.0,6.0,48,0.00,,CLR,0.01,479.00,VWS V14.01,2013-07-14 21:54:00,
2013-07-14 17:59:00,87.8,66.3,30.23,SSW,209,0.0,6.0,49,0.00,,CLR,0.01,463.00,VWS V14.01,2013-07-14 21:59:00,
2013-07-14 18:04:00,88.3,66.7,30.23,WSW,237,1.0,2.0,49,0.00,,CLR,0.01,450.00,VWS V14.01,2013-07-14 22:04:00,
2013-07-14 18:09:00,88.3,66.1,30.23,WSW,239,2.0,6.0,48,0.00,,CLR,0.01,428.00,VWS V14.01,2013-07-14 22:09:00,
2013-07-14 18:14:00,87.6,66.1,30.23,SSW,200,7.0,7.0,49,0.00,,CLR,0.01,447.00,VWS V14.01,2013-07-14 22:14:00,
2013-07-14 18:20:00,87.2,66.3,30.23,South,178,7.0,8.0,50,0.00,,CLR,0.01,431.00,VWS V14.01,2013-07-14 22:20:00,
2013-07-14 18:25:00,87.0,66.7,30.23,South,181,0.0,3.0,51,0.00,,CLR,0.01,417.00,VWS V14.01,2013-07-14 22:25:00,
2013-07-14 18:30:00,86.6,66.9,30.23,SW,227,0.0,6.0,52,0.00,,CLR,0.01,368.00,VWS V14.01,2013-07-14 22:30:00,
2013-07-14 18:35:00,86.6,65.8,30.23,WSW,241,0.0,6.0,50,0.00,,CLR,0.01,348.00,VWS V14.01,2013-07-14 22:35:00,
2013-07-14 18:40:00,86.4,66.2,30.23,SW,230,0.0,7.0,51,0.00,,CLR,0.01,343.00,VWS V14.01,2013-07-14 22:40:00,
2013-07-14 18:45:00,86.4,66.7,30.23,WSW,257,0.0,2.0,52,0.00,,CLR,0.01,160.00,VWS V14.01,2013-07-14 22:45:00,
2013-07-14 18:50:00,86.6,67.4,30.23,WSW,247,0.0,2.0,53,0.00,,CLR,0.01,303.00,VWS V14.01,2013-07-14 22:50:00,
2013-07-14 18:55:00,86.6,66.3,30.23,SSW,200,1.0,2.0,51,0.00,,CLR,0.01,287.00,VWS V14.01,2013-07-14 22:55:00,
2013-07-14 19:00:00,86.2,66.0,30.23,SW,236,1.0,3.0,51,0.00,,CLR,0.01,287.00,VWS V14.01,2013-07-14 23:00:00,
2013-07-14 19:05:00,85.5,65.9,30.23,SW,234,0.0,1.0,52,0.00,,CLR,0.01,287.00,VWS V14.01,2013-07-14 23:05:00,
2013-07-14 19:10:00,84.9,66.4,30.23,SW,234,0.0,1.0,54,0.00,,CLR,0.01,141.00,VWS V14.01,2013-07-14 23:10:00,
2013-07-14 19:15:00,84.7,66.2,30.23,SW,234,0.0,0.0,54,0.00,,CLR,0.01,183.00,VWS V14.01,2013-07-14 23:15:00,
2013-07-14 19:21:00,84.9,66.4,30.23,SSW,203,0.0,0.0,54,0.00,,CLR,0.01,188.00,VWS V14.01,2013-07-14 23:21:00,
2013-07-14 19:26:00,85.1,67.1,30.23,SSW,203,0.0,0.0,55,0.00,,CLR,0.01,194.00,VWS V14.01,2013-07-14 23:26:00,
2013-07-14 19:31:00,85.3,67.3,30.23,SSW,203,0.0,0.0,55,0.00,,CLR,0.01,194.00,VWS V14.01,2013-07-14 23:31:00,
2013-07-14 19:36:00,85.3,66.8,30.23,SSW,203,0.0,0.0,54,0.00,,CLR,0.01,148.00,VWS V14.01,2013-07-14 23:36:00,
2013-07-14 19:41:00,85.1,66.6,30.23,SSW,203,0.0,0.0,54,0.00,,CLR,0.01,134.00,VWS V14.01,2013-07-14 23:41:00,
2013-07-14 19:46:00,84.7,67.3,30.23,SSW,203,0.0,0.0,56,0.00,,CLR,0.01,125.00,VWS V14.01,2013-07-14 23:46:00,
2013-07-14 19:51:00,84.1,66.7,30.23,SSW,203,0.0,0.0,56,0.00,,CLR,0.01,111.00,VWS V14.01,2013-07-14 23:51:00,
2013-07-14 19:56:00,83.7,67.9,30.23,SW,216,0.0,1.0,59,0.00,,CLR,0.01,84.00,VWS V14.01,2013-07-14 23:56:00,
2013-07-14 20:01:00,83.3,67.0,30.23,SW,229,0.0,3.0,58,0.00,,CLR,0.01,74.00,VWS V14.01,2013-07-15 00:01:00,
2013-07-14 20:06:00,83.0,67.2,30.23,SW,229,0.0,0.0,59,0.00,,CLR,0.01,55.00,VWS V14.01,2013-07-15 00:06:00,
2013-07-14 20:11:00,82.8,68.0,30.23,SW,229,1.0,1.0,61,0.00,,CLR,0.01,32.00,VWS V14.01,2013-07-15 00:11:00,
2013-07-14 20:16:00,82.4,67.1,30.23,SW,229,0.0,0.0,60,0.00,,CLR,0.01,32.00,VWS V14.01,2013-07-15 00:16:00,
2013-07-14 20:21:00,81.8,67.5,30.24,SW,229,0.0,0.0,62,0.00,,CLR,0.01,19.00,VWS V14.01,2013-07-15 00:21:00,
2013-07-14 20:27:00,81.4,66.2,30.24,SW,229,0.0,2.0,60,0.00,,CLR,0.01,14.00,VWS V14.01,2013-07-15 00:27:00,
2013-07-14 20:32:00,81.2,66.5,30.24,SW,229,0.0,2.0,61,0.00,,CLR,0.01,14.00,VWS V14.01,2013-07-15 00:32:00,
2013-07-14 20:37:00,80.8,66.6,30.24,SSW,206,2.0,2.0,62,0.00,,CLR,0.01,11.00,VWS V14.01,2013-07-15 00:37:00,
2013-07-14 20:42:00,80.1,66.4,30.24,SSW,208,0.0,2.0,63,0.00,,CLR,0.01,5.00,VWS V14.01,2013-07-15 00:42:00,
2013-07-14 20:47:00,79.7,66.0,30.24,WSW,243,0.0,2.0,63,0.00,,CLR,0.01,5.00,VWS V14.01,2013-07-15 00:47:00,
2013-07-14 20:52:00,79.3,66.1,30.24,WSW,243,0.0,2.0,64,0.00,,CLR,0.01,0.00,VWS V14.01,2013-07-15 00:52:00,
2013-07-14 20:57:00,78.9,65.7,30.24,WSW,243,0.0,0.0,64,0.00,,CLR,0.01,0.00,VWS V14.01,2013-07-15 00:57:00,
2013-07-14 21:02:00,78.8,65.6,30.25,WSW,243,0.0,0.0,64,0.00,,CLR,0.01,0.00,VWS V14.01,2013-07-15 01:02:00,
2013-07-14 21:07:00,78.6,65.9,30.25,WSW,243,0.0,0.0,65,0.00,,CLR,0.01,0.00,VWS V14.01,2013-07-15 01:07:00,
2013-07-14 21:12:00,78.2,65.5,30.25,WSW,243,0.0,0.0,65,0.00,,CLR,0.01,0.00,VWS V14.01,2013-07-15 01:12:00,
2013-07-14 21:17:00,77.8,66.4,30.25,WSW,243,0.0,0.0,68,0.00,,CLR,0.01,0.00,VWS V14.01,2013-07-15 01:17:00,
2013-07-14 21:22:00,77.5,66.1,30.25,WSW,243,0.0,0.0,68,0.00,,CLR,0.01,0.00,VWS V14.01,2013-07-15 01:22:00,
2013-07-14 21:28:00,76.9,66.4,30.25,WSW,243,0.0,0.0,70,0.00,,CLR,0.01,0.00,VWS V14.01,2013-07-15 01:28:00,
2013-07-14 21:33:00,76.7,66.6,30.25,WSW,243,0.0,2.0,71,0.00,,CLR,0.01,0.00,VWS V14.01,2013-07-15 01:33:00,
2013-07-14 21:38:00,76.4,65.9,30.25,SW,229,0.0,3.0,70,0.00,,CLR,0.01,0.00,VWS V14.01,2013-07-15 01:38:00,
2013-07-14 21:43:00,76.4,65.9,30.25,SW,229,0.0,0.0,70,0.00,,CLR,0.01,0.00,VWS V14.01,2013-07-15 01:43:00,
2013-07-14 21:48:00,76.4,65.9,30.26,SW,226,0.0,1.0,70,0.00,,CLR,0.01,0.00,VWS V14.01,2013-07-15 01:48:00,
2013-07-14 21:53:00,76.2,65.7,30.26,SSW,210,0.0,1.0,70,0.00,,CLR,0.01,0.00,VWS V14.01,2013-07-15 01:53:00,
2013-07-14 21:58:00,76.0,65.9,30.26,SW,215,0.0,3.0,71,0.00,,CLR,0.01,0.00,VWS V14.01,2013-07-15 01:58:00,
2013-07-14 22:03:00,75.8,65.7,30.26,SW,215,0.0,0.0,71,0.00,,CLR,0.01,0.00,VWS V14.01,2013-07-15 02:03:00,
2013-07-14 22:08:00,75.8,65.7,30.26,SW,217,1.0,1.0,71,0.00,,CLR,0.01,0.00,VWS V14.01,2013-07-15 02:08:00,
2013-07-14 22:13:00,75.3,66.4,30.26,SW,217,0.0,0.0,74,0.00,,CLR,0.01,0.00,VWS V14.01,2013-07-15 02:13:00,
2013-07-14 22:18:00,75.1,66.6,30.26,SW,217,0.0,0.0,75,0.00,,CLR,0.01,0.00,VWS V14.01,2013-07-15 02:18:00,
2013-07-14 22:24:00,74.8,66.7,30.26,SW,217,0.0,0.0,76,0.00,,CLR,0.01,0.00,VWS V14.01,2013-07-15 02:24:00,
2013-07-14 22:29:00,74.6,66.5,30.26,SW,217,0.0,1.0,76,0.00,,CLR,0.01,0.00,VWS V14.01,2013-07-15 02:29:00,
2013-07-14 22:34:00,74.3,67.0,30.27,SW,217,0.0,0.0,78,0.00,,CLR,0.01,0.00,VWS V14.01,2013-07-15 02:34:00,
2013-07-14 22:39:00,73.9,67.0,30.27,SW,217,0.0,0.0,79,0.00,,CLR,0.01,0.00,VWS V14.01,2013-07-15 02:39:00,
2013-07-14 22:44:00,73.6,67.1,30.27,SW,217,0.0,0.0,80,0.00,,CLR,0.01,0.00,VWS V14.01,2013-07-15 02:44:00,
2013-07-14 22:49:00,73.4,67.2,30.27,SW,217,0.0,0.0,81,0.00,,CLR,0.01,0.00,VWS V14.01,2013-07-15 02:49:00,
2013-07-14 22:54:00,72.9,66.7,30.27,SW,217,0.0,0.0,81,0.00,,CLR,0.01,0.00,VWS V14.01,2013-07-15 02:54:00,
2013-07-14 22:59:00,72.7,66.9,30.27,SW,217,0.0,0.0,82,0.00,,CLR,0.01,0.00,VWS V14.01,2013-07-15 02:59:00,
2013-07-14 23:04:00,72.5,67.1,30.27,SW,217,0.0,0.0,83,0.00,,CLR,0.01,0.00,VWS V14.01,2013-07-15 03:04:00,
2013-07-14 23:09:00,72.3,66.8,30.27,SW,217,0.0,0.0,83,0.00,,CLR,0.01,0.00,VWS V14.01,2013-07-15 03:09:00,
2013-07-14 23:14:00,72.0,66.9,30.27,SW,217,0.0,0.0,84,0.00,,CLR,0.01,0.00,VWS V14.01,2013-07-15 03:14:00,
2013-07-14 23:19:00,71.8,66.7,30.27,SW,217,0.0,0.0,84,0.00,,CLR,0.01,0.00,VWS V14.01,2013-07-15 03:19:00,
2013-07-14 23:25:00,71.7,66.9,30.27,SW,217,0.0,0.0,85,0.00,,CLR,0.01,0.00,VWS V14.01,2013-07-15 03:25:00,
2013-07-14 23:30:00,71.7,66.9,30.27,SW,217,0.0,0.0,85,0.00,,CLR,0.01,0.00,VWS V14.01,2013-07-15 03:30:00,
2013-07-14 23:35:00,71.5,66.8,30.26,SW,217,0.0,0.0,85,0.00,,CLR,0.01,0.00,VWS V14.01,2013-07-15 03:35:00,
2013-07-14 23:40:00,71.3,67.2,30.26,SW,217,0.0,0.0,87,0.00,,CLR,0.01,0.00,VWS V14.01,2013-07-15 03:40:00,
2013-07-14 23:45:00,71.3,67.2,30.26,SW,217,0.0,0.0,87,0.00,,CLR,0.01,0.00,VWS V14.01,2013-07-15 03:45:00,
2013-07-14 23:50:00,71.1,67.0,30.27,SW,217,0.0,0.0,87,0.00,,CLR,0.01,0.00,VWS V14.01,2013-07-15 03:50:00,
2013-07-14 23:55:00,71.1,67.0,30.27,SW,217,0.0,0.0,87,0.00,,CLR,0.01,0.00,VWS V14.01,2013-07-15 03:55:00,